sensor_id;sensor_type;location;lat;lon;timestamp;pressure;altitude;pressure_sealevel;temperature;humidity
28588;BME280;15787;49.662;10.162;2023-04-23T00:01:47;98402.78;;;14.67;85.44
28588;BME280;15787;49.662;10.162;2023-04-23T00:04:21;98416.44;;;14.50;85.46
28588;BME280;15787;49.662;10.162;2023-04-23T00:06:57;98414.44;;;14.24;86.95
28588;BME280;15787;49.662;10.162;2023-04-23T00:09:32;98409.75;;;14.48;86.84
28588;BME280;15787;49.662;10.162;2023-04-23T00:12:06;98424.97;;;14.65;86.09
28588;BME280;15787;49.662;10.162;2023-04-23T00:14:39;98420.50;;;14.49;85.77
28588;BME280;15787;49.662;10.162;2023-04-23T00:17:13;98405.91;;;14.18;88.36
28588;BME280;15787;49.662;10.162;2023-04-23T00:19:46;98398.59;;;14.03;88.38
28588;BME280;15787;49.662;10.162;2023-04-23T00:22:20;98384.81;;;14.14;88.31
28588;BME280;15787;49.662;10.162;2023-04-23T00:24:54;98369.88;;;13.99;88.09
28588;BME280;15787;49.662;10.162;2023-04-23T00:27:26;98390.00;;;13.97;89.20
28588;BME280;15787;49.662;10.162;2023-04-23T00:29:59;98401.09;;;14.01;89.03
28588;BME280;15787;49.662;10.162;2023-04-23T00:32:33;98397.81;;;13.93;89.23
28588;BME280;15787;49.662;10.162;2023-04-23T00:35:07;98391.72;;;13.94;89.07
28588;BME280;15787;49.662;10.162;2023-04-23T00:37:41;98398.13;;;13.86;89.24
28588;BME280;15787;49.662;10.162;2023-04-23T00:40:14;98400.47;;;13.78;89.67
28588;BME280;15787;49.662;10.162;2023-04-23T00:42:47;98402.97;;;13.67;90.70
28588;BME280;15787;49.662;10.162;2023-04-23T00:45:22;98400.63;;;13.66;90.45
28588;BME280;15787;49.662;10.162;2023-04-23T00:47:57;98407.16;;;13.45;91.31
28588;BME280;15787;49.662;10.162;2023-04-23T00:50:30;98408.38;;;13.16;92.94
28588;BME280;15787;49.662;10.162;2023-04-23T00:53:04;98408.25;;;13.47;93.31
28588;BME280;15787;49.662;10.162;2023-04-23T00:55:37;98412.59;;;13.39;93.14
28588;BME280;15787;49.662;10.162;2023-04-23T00:58:11;98409.47;;;13.28;92.79
28588;BME280;15787;49.662;10.162;2023-04-23T01:00:45;98414.50;;;13.51;93.04
28588;BME280;15787;49.662;10.162;2023-04-23T01:03:19;98409.81;;;13.48;92.34
28588;BME280;15787;49.662;10.162;2023-04-23T01:05:53;98411.22;;;13.62;92.69
28588;BME280;15787;49.662;10.162;2023-04-23T01:08:30;98405.59;;;13.35;93.09
28588;BME280;15787;49.662;10.162;2023-04-23T01:11:04;98404.50;;;13.50;93.53
28588;BME280;15787;49.662;10.162;2023-04-23T01:13:37;98381.28;;;13.68;92.14
28588;BME280;15787;49.662;10.162;2023-04-23T01:16:10;98367.44;;;13.64;91.45
28588;BME280;15787;49.662;10.162;2023-04-23T01:18:43;98382.53;;;13.85;91.60
28588;BME280;15787;49.662;10.162;2023-04-23T01:21:17;98404.81;;;13.43;93.06
28588;BME280;15787;49.662;10.162;2023-04-23T01:23:52;98408.22;;;13.29;93.48
28588;BME280;15787;49.662;10.162;2023-04-23T01:26:25;98408.50;;;13.13;95.36
28588;BME280;15787;49.662;10.162;2023-04-23T01:28:58;98407.94;;;13.27;95.58
28588;BME280;15787;49.662;10.162;2023-04-23T01:31:31;98415.44;;;13.66;93.83
28588;BME280;15787;49.662;10.162;2023-04-23T01:34:05;98410.91;;;13.51;93.59
28588;BME280;15787;49.662;10.162;2023-04-23T01:36:39;98415.38;;;13.21;94.56
28588;BME280;15787;49.662;10.162;2023-04-23T01:39:14;98418.03;;;13.34;95.10
28588;BME280;15787;49.662;10.162;2023-04-23T01:41:47;98425.97;;;13.26;95.43
28588;BME280;15787;49.662;10.162;2023-04-23T01:44:20;98416.81;;;13.71;94.04
28588;BME280;15787;49.662;10.162;2023-04-23T01:46:53;98412.94;;;13.59;93.88
28588;BME280;15787;49.662;10.162;2023-04-23T01:49:28;98418.38;;;13.63;93.50
28588;BME280;15787;49.662;10.162;2023-04-23T01:52:01;98420.88;;;13.52;93.97
28588;BME280;15787;49.662;10.162;2023-04-23T01:54:35;98420.72;;;13.37;94.36
28588;BME280;15787;49.662;10.162;2023-04-23T01:57:09;98420.19;;;13.20;96.03
28588;BME280;15787;49.662;10.162;2023-04-23T01:59:42;98425.09;;;13.56;94.97
28588;BME280;15787;49.662;10.162;2023-04-23T02:02:15;98428.91;;;13.13;95.46
28588;BME280;15787;49.662;10.162;2023-04-23T02:04:49;98413.56;;;13.54;94.01
28588;BME280;15787;49.662;10.162;2023-04-23T02:07:23;98423.66;;;13.34;93.27
28588;BME280;15787;49.662;10.162;2023-04-23T02:09:57;98420.69;;;13.19;94.49
28588;BME280;15787;49.662;10.162;2023-04-23T02:12:30;98415.09;;;13.37;95.28
28588;BME280;15787;49.662;10.162;2023-04-23T02:15:04;98417.56;;;13.26;95.79
28588;BME280;15787;49.662;10.162;2023-04-23T02:17:38;98419.97;;;13.06;96.89
28588;BME280;15787;49.662;10.162;2023-04-23T02:20:11;98431.19;;;13.06;98.09
28588;BME280;15787;49.662;10.162;2023-04-23T02:22:45;98426.41;;;13.15;98.19
28588;BME280;15787;49.662;10.162;2023-04-23T02:25:20;98424.34;;;13.07;98.60
28588;BME280;15787;49.662;10.162;2023-04-23T02:27:53;98426.81;;;13.05;99.80
28588;BME280;15787;49.662;10.162;2023-04-23T02:30:27;98429.53;;;13.17;99.08
28588;BME280;15787;49.662;10.162;2023-04-23T02:33:01;98429.03;;;13.10;99.46
28588;BME280;15787;49.662;10.162;2023-04-23T02:35:34;98425.00;;;13.11;99.77
28588;BME280;15787;49.662;10.162;2023-04-23T02:38:07;98415.94;;;13.07;100.00
28588;BME280;15787;49.662;10.162;2023-04-23T02:40:41;98432.75;;;13.07;100.00
28588;BME280;15787;49.662;10.162;2023-04-23T02:43:14;98430.31;;;13.18;99.79
28588;BME280;15787;49.662;10.162;2023-04-23T02:45:48;98436.53;;;13.13;100.00
28588;BME280;15787;49.662;10.162;2023-04-23T02:48:21;98435.22;;;12.96;100.00
28588;BME280;15787;49.662;10.162;2023-04-23T02:50:56;98439.28;;;13.04;100.00
28588;BME280;15787;49.662;10.162;2023-04-23T02:53:29;98437.41;;;13.01;100.00
28588;BME280;15787;49.662;10.162;2023-04-23T02:56:04;98435.69;;;13.03;100.00
28588;BME280;15787;49.662;10.162;2023-04-23T02:58:38;98441.41;;;12.91;100.00
28588;BME280;15787;49.662;10.162;2023-04-23T03:01:11;98435.03;;;12.90;100.00
28588;BME280;15787;49.662;10.162;2023-04-23T03:03:44;98437.22;;;12.86;100.00
28588;BME280;15787;49.662;10.162;2023-04-23T03:06:18;98445.91;;;12.88;100.00
28588;BME280;15787;49.662;10.162;2023-04-23T03:08:51;98439.41;;;12.91;100.00
28588;BME280;15787;49.662;10.162;2023-04-23T03:11:25;98436.72;;;12.79;100.00
28588;BME280;15787;49.662;10.162;2023-04-23T03:13:58;98448.25;;;12.90;100.00
28588;BME280;15787;49.662;10.162;2023-04-23T03:16:31;98442.91;;;12.74;100.00
28588;BME280;15787;49.662;10.162;2023-04-23T03:19:04;98440.91;;;12.83;100.00
28588;BME280;15787;49.662;10.162;2023-04-23T03:21:38;98446.81;;;12.76;100.00
28588;BME280;15787;49.662;10.162;2023-04-23T03:24:12;98443.84;;;12.80;100.00
28588;BME280;15787;49.662;10.162;2023-04-23T03:26:48;98450.38;;;12.77;100.00
28588;BME280;15787;49.662;10.162;2023-04-23T03:29:20;98455.22;;;12.76;100.00
28588;BME280;15787;49.662;10.162;2023-04-23T03:31:53;98457.56;;;12.78;100.00
28588;BME280;15787;49.662;10.162;2023-04-23T03:34:27;98447.47;;;12.58;100.00
28588;BME280;15787;49.662;10.162;2023-04-23T03:37:00;98442.75;;;12.77;100.00
28588;BME280;15787;49.662;10.162;2023-04-23T03:39:36;98451.03;;;12.81;100.00
28588;BME280;15787;49.662;10.162;2023-04-23T03:42:10;98448.66;;;12.79;100.00
28588;BME280;15787;49.662;10.162;2023-04-23T03:44:44;98453.78;;;12.72;100.00
28588;BME280;15787;49.662;10.162;2023-04-23T03:47:16;98448.72;;;12.88;100.00
28588;BME280;15787;49.662;10.162;2023-04-23T03:49:50;98447.47;;;12.58;100.00
28588;BME280;15787;49.662;10.162;2023-04-23T03:52:23;98448.72;;;12.57;100.00
28588;BME280;15787;49.662;10.162;2023-04-23T03:54:57;98440.84;;;12.65;100.00
28588;BME280;15787;49.662;10.162;2023-04-23T03:57:36;98436.34;;;12.67;100.00
28588;BME280;15787;49.662;10.162;2023-04-23T04:00:42;98431.44;;;12.50;100.00
28588;BME280;15787;49.662;10.162;2023-04-23T04:03:14;98446.63;;;12.40;100.00
28588;BME280;15787;49.662;10.162;2023-04-23T04:05:48;98439.16;;;12.46;100.00
28588;BME280;15787;49.662;10.162;2023-04-23T04:08:21;98440.03;;;12.34;100.00
28588;BME280;15787;49.662;10.162;2023-04-23T04:10:54;98445.25;;;12.44;100.00
28588;BME280;15787;49.662;10.162;2023-04-23T04:13:29;98447.13;;;12.47;100.00
28588;BME280;15787;49.662;10.162;2023-04-23T04:16:02;98443.41;;;12.50;100.00
28588;BME280;15787;49.662;10.162;2023-04-23T04:18:35;98438.66;;;12.38;100.00
28588;BME280;15787;49.662;10.162;2023-04-23T04:21:09;98440.63;;;12.50;100.00
28588;BME280;15787;49.662;10.162;2023-04-23T04:23:43;98432.75;;;12.36;100.00
28588;BME280;15787;49.662;10.162;2023-04-23T04:26:16;98433.91;;;12.48;100.00
28588;BME280;15787;49.662;10.162;2023-04-23T04:28:50;98443.31;;;12.32;100.00
28588;BME280;15787;49.662;10.162;2023-04-23T04:31:23;98443.66;;;12.43;100.00
28588;BME280;15787;49.662;10.162;2023-04-23T04:33:58;98440.66;;;12.59;100.00
28588;BME280;15787;49.662;10.162;2023-04-23T04:36:32;98441.72;;;12.53;100.00
28588;BME280;15787;49.662;10.162;2023-04-23T04:39:06;98443.06;;;12.48;100.00
28588;BME280;15787;49.662;10.162;2023-04-23T04:41:39;98447.31;;;12.53;100.00
28588;BME280;15787;49.662;10.162;2023-04-23T04:44:14;98451.81;;;12.50;100.00
28588;BME280;15787;49.662;10.162;2023-04-23T04:46:47;98452.63;;;12.60;100.00
28588;BME280;15787;49.662;10.162;2023-04-23T04:49:20;98460.81;;;12.76;100.00
28588;BME280;15787;49.662;10.162;2023-04-23T04:51:53;98464.28;;;12.89;100.00
28588;BME280;15787;49.662;10.162;2023-04-23T04:54:27;98461.41;;;12.71;100.00
28588;BME280;15787;49.662;10.162;2023-04-23T04:56:59;98466.84;;;12.65;100.00
28588;BME280;15787;49.662;10.162;2023-04-23T04:59:34;98465.75;;;12.72;100.00
28588;BME280;15787;49.662;10.162;2023-04-23T05:02:07;98466.94;;;12.84;100.00
28588;BME280;15787;49.662;10.162;2023-04-23T05:04:40;98470.34;;;12.88;100.00
28588;BME280;15787;49.662;10.162;2023-04-23T05:07:13;98472.38;;;12.87;100.00
28588;BME280;15787;49.662;10.162;2023-04-23T05:09:46;98473.16;;;12.88;100.00
28588;BME280;15787;49.662;10.162;2023-04-23T05:12:19;98469.47;;;13.00;100.00
28588;BME280;15787;49.662;10.162;2023-04-23T05:14:53;98484.25;;;13.31;100.00
28588;BME280;15787;49.662;10.162;2023-04-23T05:17:26;98479.38;;;13.22;100.00
28588;BME280;15787;49.662;10.162;2023-04-23T05:19:59;98491.34;;;13.14;100.00
28588;BME280;15787;49.662;10.162;2023-04-23T05:22:32;98491.06;;;13.21;100.00
28588;BME280;15787;49.662;10.162;2023-04-23T05:25:06;98495.53;;;13.09;100.00
28588;BME280;15787;49.662;10.162;2023-04-23T05:27:40;98495.00;;;13.02;100.00
28588;BME280;15787;49.662;10.162;2023-04-23T05:30:15;98495.34;;;13.04;100.00
28588;BME280;15787;49.662;10.162;2023-04-23T05:32:48;98493.75;;;12.94;100.00
28588;BME280;15787;49.662;10.162;2023-04-23T05:35:22;98493.44;;;13.01;100.00
28588;BME280;15787;49.662;10.162;2023-04-23T05:37:54;98493.44;;;13.01;100.00
28588;BME280;15787;49.662;10.162;2023-04-23T05:40:27;98500.88;;;12.95;100.00
28588;BME280;15787;49.662;10.162;2023-04-23T05:43:01;98506.69;;;13.00;100.00
28588;BME280;15787;49.662;10.162;2023-04-23T05:45:35;98509.22;;;13.07;100.00
28588;BME280;15787;49.662;10.162;2023-04-23T05:48:08;98518.72;;;13.10;100.00
28588;BME280;15787;49.662;10.162;2023-04-23T05:50:41;98513.44;;;13.12;100.00
28588;BME280;15787;49.662;10.162;2023-04-23T05:53:14;98512.22;;;13.13;100.00
28588;BME280;15787;49.662;10.162;2023-04-23T05:55:47;98510.63;;;13.12;100.00
28588;BME280;15787;49.662;10.162;2023-04-23T05:58:19;98506.28;;;13.11;100.00
28588;BME280;15787;49.662;10.162;2023-04-23T06:00:54;98504.72;;;13.10;100.00
28588;BME280;15787;49.662;10.162;2023-04-23T06:03:28;98507.47;;;13.01;100.00
28588;BME280;15787;49.662;10.162;2023-04-23T06:06:02;98514.03;;;13.07;100.00
28588;BME280;15787;49.662;10.162;2023-04-23T06:08:35;98517.41;;;13.02;100.00
28588;BME280;15787;49.662;10.162;2023-04-23T06:11:08;98523.75;;;13.15;100.00
28588;BME280;15787;49.662;10.162;2023-04-23T06:13:41;98521.13;;;13.20;100.00
28588;BME280;15787;49.662;10.162;2023-04-23T06:16:16;98524.66;;;13.12;100.00
28588;BME280;15787;49.662;10.162;2023-04-23T06:18:48;98530.03;;;13.28;100.00
28588;BME280;15787;49.662;10.162;2023-04-23T06:21:21;98526.28;;;13.22;100.00
28588;BME280;15787;49.662;10.162;2023-04-23T06:23:54;98516.13;;;13.15;100.00
28588;BME280;15787;49.662;10.162;2023-04-23T06:26:27;98513.03;;;13.22;100.00
28588;BME280;15787;49.662;10.162;2023-04-23T06:29:07;98512.88;;;13.26;100.00
28588;BME280;15787;49.662;10.162;2023-04-23T06:31:49;98513.19;;;13.28;100.00
28588;BME280;15787;49.662;10.162;2023-04-23T06:34:22;98507.34;;;13.44;100.00
28588;BME280;15787;49.662;10.162;2023-04-23T06:37:02;98505.41;;;13.90;100.00
28588;BME280;15787;49.662;10.162;2023-04-23T06:39:58;98503.97;;;13.76;100.00
28588;BME280;15787;49.662;10.162;2023-04-23T06:42:30;98503.00;;;13.70;100.00
28588;BME280;15787;49.662;10.162;2023-04-23T06:45:22;98508.63;;;13.61;100.00
28588;BME280;15787;49.662;10.162;2023-04-23T06:47:56;98501.50;;;13.87;100.00
28588;BME280;15787;49.662;10.162;2023-04-23T06:50:29;98506.34;;;14.05;99.48
28588;BME280;15787;49.662;10.162;2023-04-23T06:53:02;98522.06;;;13.84;97.05
28588;BME280;15787;49.662;10.162;2023-04-23T06:55:35;98520.66;;;13.89;95.82
28588;BME280;15787;49.662;10.162;2023-04-23T06:58:07;98511.03;;;14.35;94.72
28588;BME280;15787;49.662;10.162;2023-04-23T07:00:43;98514.00;;;14.32;92.86
28588;BME280;15787;49.662;10.162;2023-04-23T07:03:17;98512.13;;;14.38;90.77
28588;BME280;15787;49.662;10.162;2023-04-23T07:05:51;98514.91;;;14.20;89.94
28588;BME280;15787;49.662;10.162;2023-04-23T07:08:24;98504.28;;;14.60;89.73
28588;BME280;15787;49.662;10.162;2023-04-23T07:10:57;98511.41;;;14.88;89.59
28588;BME280;15787;49.662;10.162;2023-04-23T07:13:30;98509.22;;;14.92;88.91
28588;BME280;15787;49.662;10.162;2023-04-23T07:16:03;98508.66;;;14.61;88.99
28588;BME280;15787;49.662;10.162;2023-04-23T07:18:37;98511.47;;;14.61;87.06
28588;BME280;15787;49.662;10.162;2023-04-23T07:21:10;98517.09;;;14.52;87.60
28588;BME280;15787;49.662;10.162;2023-04-23T07:23:43;98509.22;;;14.92;86.18
28588;BME280;15787;49.662;10.162;2023-04-23T07:26:15;98516.88;;;14.92;86.84
28588;BME280;15787;49.662;10.162;2023-04-23T07:28:48;98515.09;;;15.12;86.44
28588;BME280;15787;49.662;10.162;2023-04-23T07:31:23;98499.50;;;14.93;86.65
28588;BME280;15787;49.662;10.162;2023-04-23T07:33:58;98510.56;;;14.46;87.84
28588;BME280;15787;49.662;10.162;2023-04-23T07:36:31;98512.50;;;14.91;87.35
28588;BME280;15787;49.662;10.162;2023-04-23T07:39:05;98505.66;;;14.65;87.80
28588;BME280;15787;49.662;10.162;2023-04-23T07:41:38;98510.09;;;14.57;88.81
28588;BME280;15787;49.662;10.162;2023-04-23T07:44:11;98504.09;;;14.82;87.88
28588;BME280;15787;49.662;10.162;2023-04-23T07:46:44;98506.84;;;15.00;85.25
28588;BME280;15787;49.662;10.162;2023-04-23T07:49:18;98498.66;;;15.44;83.88
28588;BME280;15787;49.662;10.162;2023-04-23T07:51:51;98503.69;;;15.07;81.96
28588;BME280;15787;49.662;10.162;2023-04-23T07:54:24;98493.91;;;14.93;82.01
28588;BME280;15787;49.662;10.162;2023-04-23T07:56:57;98496.03;;;15.07;82.40
28588;BME280;15787;49.662;10.162;2023-04-23T07:59:30;98502.91;;;15.39;81.98
28588;BME280;15787;49.662;10.162;2023-04-23T08:02:03;98507.94;;;15.68;82.11
28588;BME280;15787;49.662;10.162;2023-04-23T08:04:37;98499.50;;;15.68;80.17
28588;BME280;15787;49.662;10.162;2023-04-23T08:07:10;98493.72;;;16.10;78.97
28588;BME280;15787;49.662;10.162;2023-04-23T08:09:43;98495.66;;;15.56;80.70
28588;BME280;15787;49.662;10.162;2023-04-23T08:12:18;98505.13;;;15.02;81.37
28588;BME280;15787;49.662;10.162;2023-04-23T08:14:51;98492.19;;;15.85;81.08
28588;BME280;15787;49.662;10.162;2023-04-23T08:17:29;98495.84;;;16.15;80.21
28588;BME280;15787;49.662;10.162;2023-04-23T08:20:04;98490.59;;;16.08;79.18
28588;BME280;15787;49.662;10.162;2023-04-23T08:22:38;98488.22;;;16.30;77.93
28588;BME280;15787;49.662;10.162;2023-04-23T08:25:11;98483.09;;;15.90;77.55
28588;BME280;15787;49.662;10.162;2023-04-23T08:27:44;98490.63;;;16.22;77.97
28588;BME280;15787;49.662;10.162;2023-04-23T08:30:17;98487.38;;;16.38;76.25
28588;BME280;15787;49.662;10.162;2023-04-23T08:32:51;98489.97;;;16.80;74.96
28588;BME280;15787;49.662;10.162;2023-04-23T08:35:26;98473.03;;;16.80;75.10
28588;BME280;15787;49.662;10.162;2023-04-23T08:37:59;98469.84;;;17.22;74.92
28588;BME280;15787;49.662;10.162;2023-04-23T08:40:34;98469.59;;;17.05;73.25
28588;BME280;15787;49.662;10.162;2023-04-23T08:43:10;98476.38;;;17.14;72.79
28588;BME280;15787;49.662;10.162;2023-04-23T08:45:46;98469.38;;;17.24;70.57
28588;BME280;15787;49.662;10.162;2023-04-23T08:48:19;98479.13;;;17.57;70.83
28588;BME280;15787;49.662;10.162;2023-04-23T08:50:56;98480.91;;;17.40;70.13
28588;BME280;15787;49.662;10.162;2023-04-23T08:53:29;98483.72;;;17.05;70.26
28588;BME280;15787;49.662;10.162;2023-04-23T08:56:04;98482.25;;;17.80;69.67
28588;BME280;15787;49.662;10.162;2023-04-23T08:58:38;98477.44;;;17.16;69.40
28588;BME280;15787;49.662;10.162;2023-04-23T09:01:12;98491.84;;;17.67;69.68
28588;BME280;15787;49.662;10.162;2023-04-23T09:03:45;98480.41;;;17.77;70.10
28588;BME280;15787;49.662;10.162;2023-04-23T09:06:20;98486.53;;;17.40;69.63
28588;BME280;15787;49.662;10.162;2023-04-23T09:08:54;98485.75;;;17.54;70.61
28588;BME280;15787;49.662;10.162;2023-04-23T09:11:28;98475.09;;;18.24;69.73
28588;BME280;15787;49.662;10.162;2023-04-23T09:14:01;98480.03;;;18.29;67.67
28588;BME280;15787;49.662;10.162;2023-04-23T09:16:35;98468.34;;;17.76;68.43
28588;BME280;15787;49.662;10.162;2023-04-23T09:19:09;98478.66;;;18.45;67.18
28588;BME280;15787;49.662;10.162;2023-04-23T09:21:45;98470.22;;;18.71;65.38
28588;BME280;15787;49.662;10.162;2023-04-23T09:24:21;98471.22;;;18.22;64.54
28588;BME280;15787;49.662;10.162;2023-04-23T09:26:54;98464.69;;;19.19;64.47
28588;BME280;15787;49.662;10.162;2023-04-23T09:29:27;98460.00;;;19.10;64.94
28588;BME280;15787;49.662;10.162;2023-04-23T09:32:05;98447.03;;;19.35;62.40
28588;BME280;15787;49.662;10.162;2023-04-23T09:34:39;98448.81;;;19.32;60.45
28588;BME280;15787;49.662;10.162;2023-04-23T09:37:17;98445.94;;;19.64;61.91
28588;BME280;15787;49.662;10.162;2023-04-23T09:39:51;98440.19;;;20.00;60.92
28588;BME280;15787;49.662;10.162;2023-04-23T09:42:27;98443.91;;;20.23;60.66
28588;BME280;15787;49.662;10.162;2023-04-23T09:45:03;98436.41;;;18.87;59.09
28588;BME280;15787;49.662;10.162;2023-04-23T09:47:38;98435.69;;;20.31;59.31
28588;BME280;15787;49.662;10.162;2023-04-23T09:50:11;98438.06;;;20.71;57.86
28588;BME280;15787;49.662;10.162;2023-04-23T09:52:53;98440.03;;;18.62;57.93
28588;BME280;15787;49.662;10.162;2023-04-23T09:55:27;98432.94;;;19.40;60.46
28588;BME280;15787;49.662;10.162;2023-04-23T09:58:01;98431.59;;;20.59;60.23
28588;BME280;15787;49.662;10.162;2023-04-23T10:00:36;98425.69;;;20.79;57.67
28588;BME280;15787;49.662;10.162;2023-04-23T10:03:10;98427.81;;;19.98;58.12
28588;BME280;15787;49.662;10.162;2023-04-23T10:05:43;98417.94;;;20.63;60.13
28588;BME280;15787;49.662;10.162;2023-04-23T10:08:33;98409.38;;;21.41;58.83
28588;BME280;15787;49.662;10.162;2023-04-23T10:11:06;98408.63;;;21.35;58.33
28588;BME280;15787;49.662;10.162;2023-04-23T10:13:52;98415.13;;;20.69;58.21
28588;BME280;15787;49.662;10.162;2023-04-23T10:16:25;98409.69;;;20.71;57.27
28588;BME280;15787;49.662;10.162;2023-04-23T10:19:13;98406.81;;;21.37;55.59
28588;BME280;15787;49.662;10.162;2023-04-23T10:21:48;98405.94;;;19.45;56.72
28588;BME280;15787;49.662;10.162;2023-04-23T10:24:31;98401.72;;;19.77;59.21
28588;BME280;15787;49.662;10.162;2023-04-23T10:27:09;98399.31;;;20.29;57.92
28588;BME280;15787;49.662;10.162;2023-04-23T10:29:57;98399.88;;;20.83;58.71
28588;BME280;15787;49.662;10.162;2023-04-23T10:32:32;98389.03;;;21.04;56.34
28588;BME280;15787;49.662;10.162;2023-04-23T10:35:06;98387.19;;;21.34;56.14
28588;BME280;15787;49.662;10.162;2023-04-23T10:37:40;98384.94;;;20.60;56.16
28588;BME280;15787;49.662;10.162;2023-04-23T10:40:20;98387.75;;;20.99;55.22
28588;BME280;15787;49.662;10.162;2023-04-23T10:42:57;98380.50;;;21.20;55.68
28588;BME280;15787;49.662;10.162;2023-04-23T10:45:31;98383.28;;;22.17;53.07
28588;BME280;15787;49.662;10.162;2023-04-23T10:48:04;98381.88;;;21.77;53.78
28588;BME280;15787;49.662;10.162;2023-04-23T10:50:39;98380.84;;;21.74;53.62
28588;BME280;15787;49.662;10.162;2023-04-23T10:53:31;98379.13;;;22.12;53.40
28588;BME280;15787;49.662;10.162;2023-04-23T10:56:08;98379.41;;;21.51;55.38
28588;BME280;15787;49.662;10.162;2023-04-23T10:58:48;98372.34;;;22.26;52.27
28588;BME280;15787;49.662;10.162;2023-04-23T11:01:23;98373.78;;;22.44;52.94
28588;BME280;15787;49.662;10.162;2023-04-23T11:03:57;98365.09;;;22.25;51.13
28588;BME280;15787;49.662;10.162;2023-04-23T11:06:49;98367.84;;;22.01;51.59
28588;BME280;15787;49.662;10.162;2023-04-23T11:09:47;98348.91;;;22.50;53.61
28588;BME280;15787;49.662;10.162;2023-04-23T11:12:31;98354.72;;;23.22;52.14
28588;BME280;15787;49.662;10.162;2023-04-23T11:15:12;98342.88;;;23.43;49.35
28588;BME280;15787;49.662;10.162;2023-04-23T11:17:58;98345.84;;;21.44;52.05
28588;BME280;15787;49.662;10.162;2023-04-23T11:20:32;98345.09;;;22.42;51.64
28588;BME280;15787;49.662;10.162;2023-04-23T11:23:07;98336.16;;;22.27;52.40
28588;BME280;15787;49.662;10.162;2023-04-23T11:26:01;98328.94;;;22.55;51.59
28588;BME280;15787;49.662;10.162;2023-04-23T11:28:38;98321.97;;;21.75;51.64
28588;BME280;15787;49.662;10.162;2023-04-23T11:31:13;98327.47;;;22.08;49.82
28588;BME280;15787;49.662;10.162;2023-04-23T11:33:49;98328.31;;;22.38;49.97
28588;BME280;15787;49.662;10.162;2023-04-23T11:36:22;98324.44;;;22.36;49.60
28588;BME280;15787;49.662;10.162;2023-04-23T11:38:56;98323.56;;;22.17;51.27
28588;BME280;15787;49.662;10.162;2023-04-23T11:41:29;98327.59;;;21.91;50.23
28588;BME280;15787;49.662;10.162;2023-04-23T11:44:04;98322.34;;;21.43;50.93
28588;BME280;15787;49.662;10.162;2023-04-23T11:46:37;98328.13;;;21.10;51.87
28588;BME280;15787;49.662;10.162;2023-04-23T11:49:10;98318.38;;;20.84;52.27
28588;BME280;15787;49.662;10.162;2023-04-23T11:51:44;98310.91;;;20.80;53.78
28588;BME280;15787;49.662;10.162;2023-04-23T11:54:24;98305.50;;;22.14;52.15
28588;BME280;15787;49.662;10.162;2023-04-23T11:56:58;98302.25;;;22.29;52.05
28588;BME280;15787;49.662;10.162;2023-04-23T11:59:32;98305.38;;;21.90;52.63
28588;BME280;15787;49.662;10.162;2023-04-23T12:02:05;98309.13;;;21.63;50.71
28588;BME280;15787;49.662;10.162;2023-04-23T12:04:38;98296.94;;;21.68;50.88
28588;BME280;15787;49.662;10.162;2023-04-23T12:07:12;98296.28;;;21.51;51.03
28588;BME280;15787;49.662;10.162;2023-04-23T12:09:57;98287.81;;;22.56;50.87
28588;BME280;15787;49.662;10.162;2023-04-23T12:12:32;98283.25;;;22.13;50.35
28588;BME280;15787;49.662;10.162;2023-04-23T12:15:07;98278.59;;;21.17;51.40
28588;BME280;15787;49.662;10.162;2023-04-23T12:17:40;98284.50;;;21.76;52.46
28588;BME280;15787;49.662;10.162;2023-04-23T12:20:16;98272.34;;;22.52;50.17
28588;BME280;15787;49.662;10.162;2023-04-23T12:22:49;98280.53;;;22.31;50.70
28588;BME280;15787;49.662;10.162;2023-04-23T12:25:22;98282.41;;;21.82;52.32
28588;BME280;15787;49.662;10.162;2023-04-23T12:27:57;98287.97;;;20.62;52.17
28588;BME280;15787;49.662;10.162;2023-04-23T12:30:33;98271.78;;;20.24;54.13
28588;BME280;15787;49.662;10.162;2023-04-23T12:33:09;98276.53;;;21.01;53.85
28588;BME280;15787;49.662;10.162;2023-04-23T12:35:44;98277.38;;;20.79;53.61
28588;BME280;15787;49.662;10.162;2023-04-23T12:38:21;98269.84;;;21.09;53.33
28588;BME280;15787;49.662;10.162;2023-04-23T12:40:57;98264.66;;;21.71;54.33
28588;BME280;15787;49.662;10.162;2023-04-23T12:43:30;98255.53;;;21.89;53.74
28588;BME280;15787;49.662;10.162;2023-04-23T12:46:04;98259.41;;;21.86;51.51
28588;BME280;15787;49.662;10.162;2023-04-23T12:48:38;98258.38;;;22.24;50.74
28588;BME280;15787;49.662;10.162;2023-04-23T12:51:10;98251.31;;;22.31;49.15
28588;BME280;15787;49.662;10.162;2023-04-23T12:53:43;98260.84;;;21.57;50.24
28588;BME280;15787;49.662;10.162;2023-04-23T12:56:16;98249.38;;;21.27;50.30
28588;BME280;15787;49.662;10.162;2023-04-23T12:58:49;98244.31;;;22.02;51.28
28588;BME280;15787;49.662;10.162;2023-04-23T13:01:23;98247.44;;;21.52;50.41
28588;BME280;15787;49.662;10.162;2023-04-23T13:03:56;98230.34;;;22.63;51.24
28588;BME280;15787;49.662;10.162;2023-04-23T13:06:29;98241.72;;;22.04;52.11
28588;BME280;15787;49.662;10.162;2023-04-23T13:09:02;98236.16;;;22.17;49.75
28588;BME280;15787;49.662;10.162;2023-04-23T13:11:36;98230.66;;;21.49;50.26
28588;BME280;15787;49.662;10.162;2023-04-23T13:14:09;98216.44;;;21.54;50.43
28588;BME280;15787;49.662;10.162;2023-04-23T13:16:44;98208.50;;;22.18;50.90
28588;BME280;15787;49.662;10.162;2023-04-23T13:19:19;98203.19;;;21.68;50.15
28588;BME280;15787;49.662;10.162;2023-04-23T13:21:52;98201.16;;;21.16;52.24
28588;BME280;15787;49.662;10.162;2023-04-23T13:24:25;98191.22;;;21.45;51.44
28588;BME280;15787;49.662;10.162;2023-04-23T13:26:58;98181.47;;;22.35;52.96